createdAt,value
2022-12-31T00:00:19.083Z,14.19
2022-12-31T00:01:18.989Z,14.16
2022-12-31T00:02:19.209Z,14.16
2022-12-31T00:03:19.153Z,14.14
2022-12-31T00:04:18.968Z,14.13
2022-12-31T00:05:18.991Z,14.07
2022-12-31T00:06:18.928Z,14.04
2022-12-31T00:07:18.912Z,14.01
2022-12-31T00:08:18.975Z,13.99
2022-12-31T00:09:18.917Z,13.99
2022-12-31T00:10:18.871Z,13.98
2022-12-31T00:11:18.861Z,13.96
2022-12-31T00:12:18.830Z,13.92
2022-12-31T00:13:18.823Z,13.88
2022-12-31T00:14:18.865Z,13.81
2022-12-31T00:15:18.819Z,13.77
2022-12-31T00:16:18.964Z,13.76
2022-12-31T00:17:18.850Z,13.73
2022-12-31T00:18:18.869Z,13.71
2022-12-31T00:19:18.788Z,13.69
2022-12-31T00:20:18.850Z,13.67
2022-12-31T00:21:18.724Z,13.69
2022-12-31T00:22:18.765Z,13.67
2022-12-31T00:23:28.684Z,13.69
2022-12-31T00:24:19.708Z,13.69
2022-12-31T00:25:18.676Z,13.67
2022-12-31T00:26:18.822Z,13.67
2022-12-31T00:27:18.645Z,13.69
2022-12-31T00:28:18.626Z,13.71
2022-12-31T00:29:18.767Z,13.73
2022-12-31T00:30:18.621Z,13.76
2022-12-31T00:31:18.623Z,13.74
2022-12-31T00:32:18.725Z,13.76
2022-12-31T00:33:18.552Z,13.83
2022-12-31T00:34:18.561Z,13.87
2022-12-31T00:35:18.720Z,13.89
2022-12-31T00:36:18.545Z,13.89
2022-12-31T00:37:18.573Z,13.88
2022-12-31T00:38:18.525Z,13.84
2022-12-31T00:39:18.464Z,13.87
2022-12-31T00:40:18.456Z,13.84
2022-12-31T00:41:18.465Z,13.81
2022-12-31T00:42:18.450Z,13.80
2022-12-31T00:43:18.433Z,13.77
2022-12-31T00:44:18.435Z,13.76
2022-12-31T00:45:18.379Z,13.74
2022-12-31T00:46:18.442Z,13.73
2022-12-31T00:47:18.505Z,13.70
2022-12-31T00:48:18.486Z,13.69
2022-12-31T00:49:18.350Z,13.67
2022-12-31T00:50:18.648Z,13.63
2022-12-31T00:51:18.308Z,13.65
2022-12-31T00:52:18.281Z,13.63
2022-12-31T00:53:18.299Z,13.65
2022-12-31T00:54:18.315Z,13.67
2022-12-31T00:55:18.337Z,13.67
2022-12-31T00:56:18.423Z,13.69
2022-12-31T00:57:18.299Z,13.70
2022-12-31T00:58:18.255Z,13.71
2022-12-31T00:59:45.338Z,13.74
2022-12-31T01:00:18.168Z,13.71
2022-12-31T01:01:18.405Z,13.74
2022-12-31T01:02:18.492Z,13.77
2022-12-31T01:03:18.169Z,13.79
2022-12-31T01:04:18.119Z,13.80
2022-12-31T01:05:18.194Z,13.84
2022-12-31T01:06:18.109Z,13.87
2022-12-31T01:07:18.074Z,13.87
2022-12-31T01:08:24.587Z,13.88
2022-12-31T01:09:19.064Z,13.88
2022-12-31T01:10:18.087Z,13.92
2022-12-31T01:11:18.023Z,13.95
2022-12-31T01:12:18.013Z,13.95
2022-12-31T01:13:17.986Z,13.99
2022-12-31T01:14:17.970Z,14.02
2022-12-31T01:15:18.052Z,14.12
2022-12-31T01:16:18.009Z,14.16
2022-12-31T01:17:17.944Z,14.17
2022-12-31T01:18:18.095Z,14.20
2022-12-31T01:19:17.901Z,14.27
2022-12-31T01:20:17.933Z,14.28
2022-12-31T01:21:18.136Z,14.35
2022-12-31T01:22:17.924Z,14.39
2022-12-31T01:23:17.848Z,14.43
2022-12-31T01:24:18.018Z,14.47
2022-12-31T01:25:17.877Z,14.50
2022-12-31T01:26:17.849Z,14.54
2022-12-31T01:27:18.022Z,14.56
2022-12-31T01:28:17.807Z,14.61
2022-12-31T01:29:17.819Z,14.64
2022-12-31T01:30:17.861Z,14.65
2022-12-31T01:31:17.818Z,14.67
2022-12-31T01:32:17.789Z,14.65
2022-12-31T01:33:17.843Z,14.65
2022-12-31T01:34:17.734Z,14.67
2022-12-31T01:35:17.696Z,14.68
2022-12-31T01:36:21.897Z,14.68
2022-12-31T01:37:18.732Z,14.71
2022-12-31T01:38:17.658Z,14.69
2022-12-31T01:39:17.910Z,14.68
2022-12-31T01:40:17.647Z,14.69
2022-12-31T01:41:17.611Z,14.69
2022-12-31T01:42:17.638Z,14.68
2022-12-31T01:43:17.583Z,14.69
2022-12-31T01:44:17.584Z,14.71
2022-12-31T01:45:17.690Z,14.75
2022-12-31T01:46:17.585Z,14.74
2022-12-31T01:47:17.538Z,14.72
2022-12-31T01:48:17.674Z,14.71
2022-12-31T01:49:17.559Z,14.69
2022-12-31T01:50:17.509Z,14.69
2022-12-31T01:51:17.525Z,14.68
2022-12-31T01:52:17.463Z,14.67
2022-12-31T01:53:17.460Z,14.71
2022-12-31T01:54:30.508Z,14.74
2022-12-31T01:55:18.487Z,14.75
2022-12-31T01:56:17.415Z,14.78
2022-12-31T01:57:42.611Z,14.81
2022-12-31T01:58:18.381Z,14.81
2022-12-31T01:59:17.389Z,14.86
2022-12-31T02:00:17.356Z,14.90
2022-12-31T02:01:17.669Z,14.94
2022-12-31T02:02:17.362Z,14.93
2022-12-31T02:03:17.438Z,14.90
2022-12-31T02:04:17.288Z,14.87
2022-12-31T02:05:17.360Z,14.86
2022-12-31T02:06:17.276Z,14.87
2022-12-31T02:07:17.259Z,14.84
2022-12-31T02:08:17.336Z,14.84
2022-12-31T02:09:17.277Z,14.88
2022-12-31T02:10:17.215Z,14.91
2022-12-31T02:11:17.239Z,15.01
2022-12-31T02:12:17.209Z,15.11
2022-12-31T02:13:17.189Z,15.20
2022-12-31T02:14:17.185Z,15.21
2022-12-31T02:15:17.188Z,15.21
2022-12-31T02:16:17.174Z,15.17
2022-12-31T02:17:17.163Z,15.09
2022-12-31T02:18:17.120Z,15.08
2022-12-31T02:19:17.102Z,15.05
2022-12-31T02:20:17.146Z,15.05
2022-12-31T02:21:17.079Z,15.03
2022-12-31T02:22:17.052Z,15.03
2022-12-31T02:23:17.065Z,15.06
2022-12-31T02:24:17.212Z,15.17
2022-12-31T02:25:17.123Z,15.24
2022-12-31T02:26:17.053Z,15.31
2022-12-31T02:27:16.980Z,15.42
2022-12-31T02:28:17.019Z,15.46
2022-12-31T02:29:16.959Z,15.46
2022-12-31T02:30:16.972Z,15.45
2022-12-31T02:31:17.161Z,15.46
2022-12-31T02:32:16.961Z,15.48
2022-12-31T02:33:16.922Z,15.51
2022-12-31T02:34:17.010Z,15.56
2022-12-31T02:35:16.881Z,15.56
2022-12-31T02:36:16.901Z,15.59
2022-12-31T02:37:16.958Z,15.61
2022-12-31T02:38:16.872Z,15.59
2022-12-31T02:39:16.908Z,15.57
2022-12-31T02:40:16.999Z,15.59
2022-12-31T02:41:16.840Z,15.61
2022-12-31T02:42:16.802Z,15.66
2022-12-31T02:43:16.992Z,15.78
2022-12-31T02:44:16.780Z,15.89
2022-12-31T02:45:16.787Z,16.01
2022-12-31T02:46:16.967Z,16.12
2022-12-31T02:47:16.793Z,16.11
2022-12-31T02:48:16.705Z,16.11
2022-12-31T02:49:46.436Z,16.12
2022-12-31T02:50:16.721Z,16.15
2022-12-31T02:51:16.695Z,16.15
2022-12-31T02:52:16.880Z,16.18
2022-12-31T02:53:16.650Z,16.22
2022-12-31T02:54:16.642Z,16.22
2022-12-31T02:55:16.748Z,16.22
2022-12-31T02:56:16.645Z,16.22
2022-12-31T02:57:16.589Z,16.20
2022-12-31T02:58:16.685Z,16.26
2022-12-31T02:59:16.590Z,16.30
2022-12-31T03:00:16.569Z,16.31
2022-12-31T03:01:16.899Z,16.30
2022-12-31T03:02:16.912Z,16.27
2022-12-31T03:03:16.559Z,16.26
2022-12-31T03:04:16.702Z,16.23
2022-12-31T03:05:16.546Z,16.30
2022-12-31T03:06:16.480Z,16.33
2022-12-31T03:07:16.543Z,16.37
2022-12-31T03:08:16.420Z,16.38
2022-12-31T03:09:16.400Z,16.44
2022-12-31T03:10:16.485Z,16.44
2022-12-31T03:11:16.399Z,16.49
2022-12-31T03:12:16.383Z,16.53
2022-12-31T03:13:16.595Z,16.55
2022-12-31T03:14:16.380Z,16.56
2022-12-31T03:15:16.328Z,16.58
2022-12-31T03:16:16.388Z,16.55
2022-12-31T03:17:16.290Z,16.55
2022-12-31T03:18:16.300Z,16.53
2022-12-31T03:19:16.435Z,16.49
2022-12-31T03:20:16.266Z,16.45
2022-12-31T03:21:16.239Z,16.49
2022-12-31T03:22:16.287Z,16.49
2022-12-31T03:23:16.235Z,16.50
2022-12-31T03:24:16.218Z,16.49
2022-12-31T03:25:16.381Z,16.45
2022-12-31T03:26:16.171Z,16.49
2022-12-31T03:27:16.162Z,16.50
2022-12-31T03:28:16.436Z,16.50
2022-12-31T03:29:16.191Z,16.49
2022-12-31T03:30:16.130Z,16.53
2022-12-31T03:31:16.511Z,16.49
2022-12-31T03:32:16.091Z,16.44
2022-12-31T03:33:16.084Z,16.41
2022-12-31T03:34:16.287Z,16.37
2022-12-31T03:35:16.135Z,16.31
2022-12-31T03:36:16.073Z,16.26
2022-12-31T03:37:16.260Z,16.15
2022-12-31T03:38:16.043Z,16.01
2022-12-31T03:39:15.984Z,15.92
2022-12-31T03:40:16.134Z,15.81
2022-12-31T03:41:15.999Z,15.72
2022-12-31T03:42:15.962Z,15.61
2022-12-31T03:43:16.154Z,15.59
2022-12-31T03:44:15.954Z,15.52
2022-12-31T03:45:15.927Z,15.48
2022-12-31T03:46:16.960Z,15.43
2022-12-31T03:47:15.872Z,15.41
2022-12-31T03:48:15.891Z,15.38
2022-12-31T03:49:15.933Z,15.38
2022-12-31T03:50:15.931Z,15.39
2022-12-31T03:51:15.850Z,15.43
2022-12-31T03:52:15.933Z,15.43
2022-12-31T03:53:15.823Z,15.45
2022-12-31T03:54:15.825Z,15.45
2022-12-31T03:55:15.970Z,15.42
2022-12-31T03:56:15.769Z,15.38
2022-12-31T03:57:15.753Z,15.35
2022-12-31T03:58:15.767Z,15.31
2022-12-31T03:59:15.731Z,15.28
2022-12-31T04:00:15.749Z,15.31
2022-12-31T04:01:15.998Z,15.31
2022-12-31T04:02:15.785Z,15.36
2022-12-31T04:03:15.726Z,15.39
2022-12-31T04:04:15.911Z,15.36
2022-12-31T04:05:15.641Z,15.35
2022-12-31T04:06:15.662Z,15.35
2022-12-31T04:07:15.648Z,15.30
2022-12-31T04:08:15.602Z,15.28
2022-12-31T04:09:15.672Z,15.27
2022-12-31T04:10:15.768Z,15.30
2022-12-31T04:11:20.609Z,15.28
2022-12-31T04:12:16.552Z,15.24
2022-12-31T04:13:15.741Z,15.23
2022-12-31T04:14:15.524Z,15.23
2022-12-31T04:15:15.552Z,15.23
2022-12-31T04:16:26.214Z,15.27
2022-12-31T04:17:16.484Z,15.28
2022-12-31T04:18:15.485Z,15.35
2022-12-31T04:19:15.490Z,15.42
2022-12-31T04:20:15.678Z,15.43
2022-12-31T04:21:15.463Z,15.48
2022-12-31T04:22:15.463Z,15.51
2022-12-31T04:23:15.618Z,15.49
2022-12-31T04:24:15.452Z,15.51
2022-12-31T04:25:15.415Z,15.51
2022-12-31T04:26:15.418Z,15.51
2022-12-31T04:27:15.345Z,15.51
2022-12-31T04:28:15.342Z,15.51
2022-12-31T04:29:15.371Z,15.52
2022-12-31T04:30:15.308Z,15.56
2022-12-31T04:31:15.293Z,15.56
2022-12-31T04:32:15.430Z,15.52
2022-12-31T04:33:15.295Z,15.52
2022-12-31T04:34:15.263Z,15.56
2022-12-31T04:35:15.379Z,15.57
2022-12-31T04:36:15.264Z,15.61
2022-12-31T04:37:15.221Z,15.64
2022-12-31T04:38:15.363Z,15.66
2022-12-31T04:39:15.223Z,15.66
2022-12-31T04:40:15.203Z,15.64
2022-12-31T04:41:15.299Z,15.61
2022-12-31T04:42:15.171Z,15.61
2022-12-31T04:43:15.154Z,15.61
2022-12-31T04:44:15.179Z,15.61
2022-12-31T04:45:15.131Z,15.60
2022-12-31T04:46:15.169Z,15.60
2022-12-31T04:47:18.776Z,15.57
2022-12-31T04:48:16.065Z,15.57
2022-12-31T04:49:15.060Z,15.54
2022-12-31T04:50:15.132Z,15.56
2022-12-31T04:51:15.063Z,15.57
2022-12-31T04:52:15.014Z,15.57
2022-12-31T04:53:15.088Z,15.60
2022-12-31T04:54:14.993Z,15.61
2022-12-31T04:55:15.005Z,15.63
2022-12-31T04:56:15.185Z,15.63
2022-12-31T04:57:14.974Z,15.63
2022-12-31T04:58:14.923Z,15.64
2022-12-31T04:59:14.969Z,15.68
2022-12-31T05:00:14.961Z,15.70
2022-12-31T05:01:15.142Z,15.72
2022-12-31T05:02:15.218Z,15.75
2022-12-31T05:03:14.940Z,15.76
2022-12-31T05:04:14.863Z,15.78
2022-12-31T05:05:31.346Z,15.78
2022-12-31T05:06:15.853Z,15.78
2022-12-31T05:07:14.859Z,15.76
2022-12-31T05:08:14.784Z,15.72
2022-12-31T05:09:14.795Z,15.74
2022-12-31T05:10:14.767Z,15.70
2022-12-31T05:11:14.833Z,15.68
2022-12-31T05:12:14.789Z,15.68
2022-12-31T05:13:14.738Z,15.67
2022-12-31T05:14:14.724Z,15.68
2022-12-31T05:15:14.735Z,15.67
2022-12-31T05:16:14.745Z,15.66
2022-12-31T05:17:14.691Z,15.67
2022-12-31T05:18:14.715Z,15.66
2022-12-31T05:19:14.664Z,15.68
2022-12-31T05:20:14.690Z,15.70
2022-12-31T05:21:15.725Z,15.72
2022-12-31T05:22:14.650Z,15.72
2022-12-31T05:23:14.628Z,15.74
2022-12-31T05:24:14.648Z,15.75
2022-12-31T05:25:14.587Z,15.75
2022-12-31T05:26:14.619Z,15.82
2022-12-31T05:27:14.600Z,15.84
2022-12-31T05:28:27.771Z,15.84
2022-12-31T05:29:14.554Z,15.85
2022-12-31T05:30:29.297Z,15.85
2022-12-31T05:31:14.536Z,15.85
2022-12-31T05:32:14.515Z,15.86
2022-12-31T05:33:14.523Z,15.92
2022-12-31T05:34:14.529Z,15.94
2022-12-31T05:35:14.516Z,15.96
2022-12-31T05:36:14.559Z,15.97
2022-12-31T05:37:14.425Z,15.97
2022-12-31T05:38:14.496Z,15.99
2022-12-31T05:39:14.508Z,16.00
2022-12-31T05:40:14.364Z,16.01
2022-12-31T05:41:14.363Z,16.06
2022-12-31T05:42:39.915Z,16.09
2022-12-31T05:43:14.413Z,16.12
2022-12-31T05:44:14.414Z,16.14
2022-12-31T05:45:47.431Z,16.14
2022-12-31T05:46:15.376Z,16.15
2022-12-31T05:47:14.314Z,16.16
2022-12-31T05:48:14.367Z,16.16
2022-12-31T05:49:49.636Z,16.16
2022-12-31T05:50:14.287Z,16.16
2022-12-31T05:51:14.249Z,16.16
2022-12-31T05:52:35.320Z,16.16
2022-12-31T05:53:14.186Z,16.20
2022-12-31T05:54:14.184Z,16.20
2022-12-31T05:55:14.222Z,16.16
2022-12-31T05:56:14.188Z,16.16
2022-12-31T05:57:14.147Z,16.18
2022-12-31T05:58:35.190Z,16.22
2022-12-31T05:59:14.169Z,16.20
2022-12-31T06:00:14.204Z,16.20
2022-12-31T06:01:14.244Z,16.22
2022-12-31T06:02:14.256Z,16.18
2022-12-31T06:03:14.202Z,16.18
2022-12-31T06:04:14.077Z,16.18
2022-12-31T06:05:14.020Z,16.18
2022-12-31T06:06:14.001Z,16.18
2022-12-31T06:07:14.108Z,16.20
2022-12-31T06:08:13.986Z,16.22
2022-12-31T06:09:14.047Z,16.20
2022-12-31T06:10:23.630Z,16.20
2022-12-31T06:11:13.930Z,16.20
2022-12-31T06:12:13.943Z,16.15
2022-12-31T06:13:39.320Z,16.18
2022-12-31T06:14:13.924Z,16.20
2022-12-31T06:15:13.880Z,16.22
2022-12-31T06:17:23.346Z,16.25
2022-12-31T06:18:23.292Z,16.23
2022-12-31T06:19:23.314Z,16.22
2022-12-31T06:20:23.382Z,16.26
2022-12-31T06:21:23.215Z,16.23
2022-12-31T06:22:23.192Z,16.20
2022-12-31T06:23:23.368Z,16.16
2022-12-31T06:24:23.197Z,16.20
2022-12-31T06:25:23.164Z,16.18
2022-12-31T06:26:23.147Z,16.16
2022-12-31T06:27:23.316Z,16.14
2022-12-31T06:28:23.201Z,16.12
2022-12-31T06:29:23.146Z,16.12
2022-12-31T06:30:23.153Z,16.16
2022-12-31T06:31:23.173Z,16.18
2022-12-31T06:32:23.110Z,16.18
2022-12-31T06:33:23.053Z,16.20
2022-12-31T06:34:23.095Z,16.25
2022-12-31T06:35:23.019Z,16.30
2022-12-31T06:36:23.027Z,16.34
2022-12-31T06:37:23.183Z,16.37
2022-12-31T06:38:22.993Z,16.37
2022-12-31T06:39:23.005Z,16.40
2022-12-31T06:40:23.184Z,16.40
2022-12-31T06:41:23.010Z,16.38
2022-12-31T06:42:22.918Z,16.41
2022-12-31T06:43:22.926Z,16.41
2022-12-31T06:44:22.940Z,16.41
2022-12-31T06:45:22.888Z,16.44
2022-12-31T06:46:22.944Z,16.48
2022-12-31T06:47:23.086Z,16.52
2022-12-31T06:48:22.915Z,16.55
2022-12-31T06:49:22.824Z,16.56
2022-12-31T06:50:22.805Z,16.58
2022-12-31T06:51:22.931Z,16.58
2022-12-31T06:52:22.856Z,16.58
2022-12-31T06:53:22.832Z,16.52
2022-12-31T06:54:22.799Z,16.52
2022-12-31T06:55:22.758Z,16.58
2022-12-31T06:56:26.560Z,16.58
2022-12-31T06:57:23.766Z,16.60
2022-12-31T06:58:22.729Z,16.59
2022-12-31T06:59:22.703Z,16.58
2022-12-31T07:00:22.775Z,16.56
2022-12-31T07:01:22.893Z,16.53
2022-12-31T07:02:22.857Z,16.50
2022-12-31T07:03:22.852Z,16.49
2022-12-31T07:04:22.597Z,16.44
2022-12-31T07:05:22.645Z,16.41
2022-12-31T07:06:22.599Z,16.40
2022-12-31T07:07:22.632Z,16.40
2022-12-31T07:08:43.637Z,16.40
2022-12-31T07:09:22.538Z,16.38
2022-12-31T07:10:45.499Z,16.37
2022-12-31T07:11:22.500Z,16.38
2022-12-31T07:12:44.297Z,16.38
2022-12-31T07:13:23.506Z,16.38
2022-12-31T07:14:22.584Z,16.35
2022-12-31T07:15:22.490Z,16.35
2022-12-31T07:16:22.519Z,16.33
2022-12-31T07:17:22.492Z,16.33
2022-12-31T07:18:22.449Z,16.33
2022-12-31T07:19:22.399Z,16.31
2022-12-31T07:20:30.153Z,16.30
2022-12-31T07:21:22.396Z,16.27
2022-12-31T07:22:22.369Z,16.27
2022-12-31T07:23:22.392Z,16.27
2022-12-31T07:24:22.462Z,16.30
2022-12-31T07:25:22.322Z,16.27
2022-12-31T07:26:22.353Z,16.30
2022-12-31T07:28:54.232Z,16.31
2022-12-31T07:28:58.922Z,16.34
2022-12-31T07:29:22.282Z,16.31
2022-12-31T07:30:22.288Z,16.34
2022-12-31T07:31:22.379Z,16.35
2022-12-31T07:32:22.261Z,16.35
2022-12-31T07:33:22.271Z,16.38
2022-12-31T07:34:45.667Z,16.37
2022-12-31T07:35:23.228Z,16.40
2022-12-31T07:36:22.166Z,16.40
2022-12-31T07:37:22.185Z,16.41
2022-12-31T07:38:22.259Z,16.41
2022-12-31T07:39:31.501Z,16.41
2022-12-31T07:40:22.119Z,16.40
2022-12-31T07:41:22.112Z,16.42
2022-12-31T07:42:22.135Z,16.42
2022-12-31T07:44:18.176Z,16.44
2022-12-31T07:44:23.145Z,16.49
2022-12-31T07:45:22.071Z,16.48
2022-12-31T07:46:30.314Z,16.50
2022-12-31T07:47:23.020Z,16.52
2022-12-31T07:48:22.052Z,16.52
2022-12-31T07:50:31.954Z,16.49
2022-12-31T07:51:31.839Z,16.55
2022-12-31T07:52:31.872Z,16.53
2022-12-31T07:53:31.998Z,16.53
2022-12-31T07:54:31.822Z,16.56
2022-12-31T07:55:31.809Z,16.59
2022-12-31T07:56:31.826Z,16.60
2022-12-31T07:57:31.770Z,16.62
2022-12-31T07:58:31.740Z,16.65
2022-12-31T08:00:00.591Z,16.67
2022-12-31T08:00:32.741Z,16.68
2022-12-31T08:01:31.773Z,16.71
2022-12-31T08:02:31.916Z,16.73
2022-12-31T08:03:31.671Z,16.74
2022-12-31T08:04:31.711Z,16.77
2022-12-31T08:05:31.841Z,16.78
2022-12-31T08:06:31.718Z,16.80
2022-12-31T08:07:31.660Z,16.81
2022-12-31T08:08:35.852Z,16.80
2022-12-31T08:09:31.660Z,16.80
2022-12-31T08:10:31.574Z,16.78
2022-12-31T08:11:31.641Z,16.78
2022-12-31T08:12:31.578Z,16.80
2022-12-31T08:13:31.530Z,16.81
2022-12-31T08:14:31.584Z,16.85
2022-12-31T08:15:31.507Z,16.88
2022-12-31T08:16:31.634Z,16.89
2022-12-31T08:17:31.565Z,16.90
2022-12-31T08:18:31.520Z,16.90
2022-12-31T08:19:31.501Z,16.93
2022-12-31T08:20:31.553Z,16.93
2022-12-31T08:21:35.076Z,16.92
2022-12-31T08:22:31.450Z,16.95
2022-12-31T08:23:31.462Z,16.96
2022-12-31T08:24:31.381Z,16.95
2022-12-31T08:25:31.370Z,16.95
2022-12-31T08:26:31.458Z,16.92
2022-12-31T08:27:31.349Z,16.90
2022-12-31T08:28:31.389Z,16.90
2022-12-31T08:29:38.095Z,16.89
2022-12-31T08:30:31.350Z,16.89
2022-12-31T08:31:31.315Z,16.90
2022-12-31T08:32:31.423Z,16.90
2022-12-31T08:33:31.363Z,16.92
2022-12-31T08:34:31.276Z,16.92
2022-12-31T08:35:31.243Z,16.93
2022-12-31T08:36:31.265Z,16.95
2022-12-31T08:37:31.223Z,16.95
2022-12-31T08:38:31.331Z,16.98
2022-12-31T08:39:31.230Z,16.98
2022-12-31T08:40:31.227Z,16.98
2022-12-31T08:41:31.249Z,16.96
2022-12-31T08:42:56.162Z,16.95
2022-12-31T08:43:31.174Z,16.98
2022-12-31T08:44:31.317Z,17.03
2022-12-31T08:45:32.191Z,17.04
2022-12-31T08:46:31.093Z,17.03
2022-12-31T08:47:37.037Z,16.99
2022-12-31T08:48:32.107Z,16.98
2022-12-31T08:49:31.183Z,16.99
2022-12-31T08:50:31.119Z,17.03
2022-12-31T08:51:31.022Z,17.04
2022-12-31T08:52:31.190Z,17.07
2022-12-31T08:53:31.026Z,17.10
2022-12-31T08:54:31.032Z,17.10
2022-12-31T08:55:34.862Z,17.10
2022-12-31T08:56:31.058Z,17.11
2022-12-31T08:57:30.963Z,17.07
2022-12-31T08:58:30.972Z,17.07
2022-12-31T08:59:31.069Z,17.10
2022-12-31T09:00:30.994Z,17.10
2022-12-31T09:01:31.061Z,17.08
2022-12-31T09:02:30.997Z,17.11
2022-12-31T09:03:30.924Z,17.13
2022-12-31T09:04:30.951Z,17.11
2022-12-31T09:05:30.896Z,17.14
2022-12-31T09:06:30.867Z,17.15
2022-12-31T09:07:30.834Z,17.14
2022-12-31T09:08:30.850Z,17.14
2022-12-31T09:09:30.912Z,17.17
2022-12-31T09:10:30.811Z,17.18
2022-12-31T09:11:30.766Z,17.20
2022-12-31T09:12:30.939Z,17.25
2022-12-31T09:13:30.811Z,17.26
2022-12-31T09:14:30.793Z,17.28
2022-12-31T09:15:30.812Z,17.28
2022-12-31T09:16:30.802Z,17.28
2022-12-31T09:17:30.694Z,17.28
2022-12-31T09:18:33.287Z,17.28
2022-12-31T09:19:30.690Z,17.30
2022-12-31T09:20:42.317Z,17.30
2022-12-31T09:21:31.729Z,17.32
2022-12-31T09:22:30.674Z,17.32
2022-12-31T09:23:30.616Z,17.33
2022-12-31T09:24:30.728Z,17.33
2022-12-31T09:25:30.589Z,17.35
2022-12-31T09:26:30.668Z,17.36
2022-12-31T09:27:30.666Z,17.36
2022-12-31T09:28:30.568Z,17.36
2022-12-31T09:29:30.562Z,17.33
2022-12-31T09:30:30.605Z,17.36
2022-12-31T09:31:30.694Z,17.41
2022-12-31T09:32:30.493Z,17.43
2022-12-31T09:33:30.536Z,17.44
2022-12-31T09:34:30.465Z,17.44
2022-12-31T09:35:30.489Z,17.43
2022-12-31T09:36:30.536Z,17.43
2022-12-31T09:37:30.464Z,17.46
2022-12-31T09:38:30.460Z,17.47
2022-12-31T09:39:30.403Z,17.48
2022-12-31T09:40:30.423Z,17.50
2022-12-31T09:41:30.783Z,17.50
2022-12-31T09:42:30.375Z,17.51
2022-12-31T09:43:30.395Z,17.54
2022-12-31T09:44:30.345Z,17.53
2022-12-31T09:45:30.413Z,17.55
2022-12-31T09:46:30.369Z,17.55
2022-12-31T09:47:30.346Z,17.62
2022-12-31T09:48:30.305Z,17.66
2022-12-31T09:49:30.466Z,17.64
2022-12-31T09:50:30.274Z,17.63
2022-12-31T09:51:30.277Z,17.64
2022-12-31T09:52:30.308Z,17.66
2022-12-31T09:53:30.205Z,17.66
2022-12-31T09:54:30.208Z,17.63
2022-12-31T09:55:30.254Z,17.66
2022-12-31T09:56:30.177Z,17.67
2022-12-31T09:57:30.175Z,17.69
2022-12-31T09:58:30.172Z,17.67
2022-12-31T09:59:30.172Z,17.69
2022-12-31T10:00:30.145Z,17.66
2022-12-31T10:01:30.326Z,17.67
2022-12-31T10:02:30.312Z,17.66
2022-12-31T10:03:30.213Z,17.67
2022-12-31T10:04:51.067Z,17.67
2022-12-31T10:05:30.062Z,17.70
2022-12-31T10:06:30.220Z,17.70
2022-12-31T10:07:30.106Z,17.70
2022-12-31T10:08:30.041Z,17.73
2022-12-31T10:09:30.239Z,17.73
2022-12-31T10:10:29.997Z,17.71
2022-12-31T10:11:30.014Z,17.71
2022-12-31T10:12:29.999Z,17.73
2022-12-31T10:13:29.977Z,17.76
2022-12-31T10:14:29.959Z,17.78
2022-12-31T10:15:29.941Z,17.82
2022-12-31T10:16:29.958Z,17.87
2022-12-31T10:17:29.892Z,17.88
2022-12-31T10:18:29.878Z,17.91
2022-12-31T10:19:29.916Z,17.91
2022-12-31T10:20:29.856Z,17.92
2022-12-31T10:21:29.861Z,17.97
2022-12-31T10:22:29.971Z,17.99
2022-12-31T10:23:29.885Z,18.00
2022-12-31T10:24:29.849Z,18.00
2022-12-31T10:25:37.888Z,18.02
2022-12-31T10:26:30.824Z,18.06
2022-12-31T10:27:29.758Z,18.12
2022-12-31T10:28:29.793Z,18.15
2022-12-31T10:29:29.794Z,18.18
2022-12-31T10:30:29.966Z,18.21
2022-12-31T10:31:29.825Z,18.22
2022-12-31T10:32:31.654Z,18.24
2022-12-31T10:33:29.738Z,18.24
2022-12-31T10:34:29.826Z,18.24
2022-12-31T10:35:29.838Z,18.25
2022-12-31T10:36:30.072Z,18.25
2022-12-31T10:37:31.672Z,18.27
2022-12-31T10:38:29.680Z,18.29
2022-12-31T10:39:29.612Z,18.29
2022-12-31T10:40:29.699Z,18.34
2022-12-31T10:41:29.666Z,18.39
2022-12-31T10:42:29.576Z,18.40
2022-12-31T10:43:29.688Z,18.40
2022-12-31T10:44:29.548Z,18.40
2022-12-31T10:45:29.631Z,18.42
2022-12-31T10:46:29.618Z,18.43
2022-12-31T10:47:29.522Z,18.46
2022-12-31T10:48:29.550Z,18.50
2022-12-31T10:49:29.587Z,18.54
2022-12-31T10:50:29.479Z,18.57
2022-12-31T10:51:29.466Z,18.58
2022-12-31T10:52:29.661Z,18.58
2022-12-31T10:53:29.429Z,18.62
2022-12-31T10:54:29.407Z,18.68
2022-12-31T10:55:29.513Z,18.70
2022-12-31T10:56:29.371Z,18.72
2022-12-31T10:57:29.383Z,18.72
2022-12-31T10:58:29.525Z,18.73
2022-12-31T10:59:29.352Z,18.77
2022-12-31T11:00:29.345Z,18.83
2022-12-31T11:01:29.372Z,18.84
2022-12-31T11:02:29.536Z,18.84
2022-12-31T11:03:29.924Z,18.90
2022-12-31T11:04:29.433Z,18.92
2022-12-31T11:05:29.250Z,18.95
2022-12-31T11:06:29.261Z,18.98
2022-12-31T11:07:29.361Z,19.05
2022-12-31T11:08:29.204Z,19.08
2022-12-31T11:09:34.340Z,19.10
2022-12-31T11:10:30.213Z,19.10
2022-12-31T11:11:29.170Z,19.13
2022-12-31T11:12:29.148Z,19.13
2022-12-31T11:13:29.223Z,19.15
2022-12-31T11:14:29.291Z,19.18
2022-12-31T11:15:29.173Z,19.18
2022-12-31T11:16:29.270Z,19.20
2022-12-31T11:17:29.144Z,19.21
2022-12-31T11:18:29.084Z,19.24
2022-12-31T11:19:29.199Z,19.24
2022-12-31T11:20:29.092Z,19.21
2022-12-31T11:21:29.067Z,19.18
2022-12-31T11:22:29.097Z,19.21
2022-12-31T11:23:29.088Z,19.18
2022-12-31T11:24:29.005Z,19.23
2022-12-31T11:25:29.103Z,19.25
2022-12-31T11:26:28.992Z,19.25
2022-12-31T11:27:28.981Z,19.29
2022-12-31T11:28:29.013Z,19.31
2022-12-31T11:29:28.954Z,19.32
2022-12-31T11:30:28.972Z,19.33
2022-12-31T11:31:28.956Z,19.38
2022-12-31T11:32:28.893Z,19.40
2022-12-31T11:33:28.880Z,19.42
2022-12-31T11:34:28.919Z,19.42
2022-12-31T11:35:28.830Z,19.43
2022-12-31T11:36:28.881Z,19.47
2022-12-31T11:37:28.832Z,19.51
2022-12-31T11:38:28.893Z,19.53
2022-12-31T11:39:31.315Z,19.53
2022-12-31T11:40:28.830Z,19.51
2022-12-31T11:41:29.008Z,19.51
2022-12-31T11:42:28.790Z,19.51
2022-12-31T11:43:28.831Z,19.51
2022-12-31T11:44:28.850Z,19.53
2022-12-31T11:45:28.711Z,19.53
2022-12-31T11:46:28.831Z,19.54
2022-12-31T11:47:28.837Z,19.58
2022-12-31T11:48:30.670Z,19.60
2022-12-31T11:49:28.727Z,19.61
2022-12-31T11:50:28.813Z,19.63
2022-12-31T11:51:28.645Z,19.66
2022-12-31T11:52:28.658Z,19.68
2022-12-31T11:53:28.856Z,19.69
2022-12-31T11:54:28.767Z,19.72
2022-12-31T11:55:28.745Z,19.69
2022-12-31T11:56:28.571Z,19.69
2022-12-31T11:57:28.584Z,19.70
2022-12-31T11:58:28.774Z,19.72
2022-12-31T11:59:28.554Z,19.72
2022-12-31T12:00:28.581Z,19.73
2022-12-31T12:01:28.583Z,19.75
2022-12-31T12:02:28.646Z,19.78
2022-12-31T12:03:28.576Z,19.80
2022-12-31T12:04:28.493Z,19.80
2022-12-31T12:05:28.466Z,19.79
2022-12-31T12:06:28.515Z,19.79
2022-12-31T12:07:28.450Z,19.83
2022-12-31T12:08:28.445Z,19.80
2022-12-31T12:09:28.435Z,19.80
2022-12-31T12:10:35.603Z,19.83
2022-12-31T12:11:29.395Z,19.80
2022-12-31T12:12:28.385Z,19.80
2022-12-31T12:13:28.345Z,19.80
2022-12-31T12:14:28.322Z,19.84
2022-12-31T12:15:28.371Z,19.86
2022-12-31T12:16:28.391Z,19.88
2022-12-31T12:17:28.361Z,19.88
2022-12-31T12:18:28.428Z,19.88
2022-12-31T12:19:28.293Z,19.87
2022-12-31T12:20:28.258Z,19.86
2022-12-31T12:21:28.304Z,19.86
2022-12-31T12:22:52.605Z,19.87
2022-12-31T12:23:28.335Z,19.84
2022-12-31T12:24:28.211Z,19.84
2022-12-31T12:25:28.256Z,19.83
2022-12-31T12:26:28.242Z,19.80
2022-12-31T12:27:28.189Z,19.80
2022-12-31T12:28:28.234Z,19.83
2022-12-31T12:29:28.315Z,19.80
2022-12-31T12:30:52.049Z,19.80
2022-12-31T12:31:28.178Z,19.76
2022-12-31T12:32:28.114Z,19.75
2022-12-31T12:33:28.311Z,19.75
2022-12-31T12:34:28.282Z,19.73
2022-12-31T12:35:28.098Z,19.70
2022-12-31T12:36:28.058Z,19.70
2022-12-31T12:37:28.026Z,19.75
2022-12-31T12:38:28.031Z,19.75
2022-12-31T12:39:28.034Z,19.75
2022-12-31T12:40:51.872Z,19.75
2022-12-31T12:41:27.996Z,19.75
2022-12-31T12:42:28.098Z,19.75
2022-12-31T12:43:27.940Z,19.75
2022-12-31T12:44:27.954Z,19.75
2022-12-31T12:45:27.936Z,19.75
2022-12-31T12:46:27.965Z,19.76
2022-12-31T12:47:27.911Z,19.78
2022-12-31T12:48:28.019Z,19.78
2022-12-31T12:49:28.067Z,19.76
2022-12-31T12:50:27.863Z,19.75
2022-12-31T12:51:27.919Z,19.73
2022-12-31T12:52:28.002Z,19.73
2022-12-31T12:53:27.990Z,19.75
2022-12-31T12:54:27.836Z,19.76